Time;durP1;ratioP1;P1;durP2;ratioP2;P2;SDS_P1;SDS_P2;PMS_P1;PMS_P2;Temp;Humidity;BMP_temperature;BMP_pressure;BME280_temperature;BME280_humidity;BME280_pressure;Samples;Min_cycle;Max_cycle;Signal;HPM_P1;HPM_P2
2021/11/25 00:00:19;;;;;;;36.70;19.65;;;10.10;61.10;;;;;;5097230;28;20020;-64
2021/11/25 00:02:45;;;;;;;32.15;16.52;;;10.10;61.00;;;;;;5099425;28;20035;-64
2021/11/25 00:05:11;;;;;;;28.73;16.05;;;10.10;61.70;;;;;;5100725;28;20024;-63
2021/11/25 00:07:37;;;;;;;33.78;18.40;;;10.10;61.90;;;;;;5100879;28;20036;-64
2021/11/25 00:10:04;;;;;;;34.55;18.42;;;10.10;62.30;;;;;;5099378;28;20087;-63
2021/11/25 00:12:30;;;;;;;35.50;19.48;;;10.10;61.40;;;;;;5100693;28;20494;-64
2021/11/25 00:14:56;;;;;;;35.28;18.27;;;10.10;61.10;;;;;;5100789;28;20020;-64
2021/11/25 00:17:22;;;;;;;33.35;18.52;;;10.10;61.20;;;;;;5100744;28;20024;-63
2021/11/25 00:19:48;;;;;;;35.25;18.38;;;10.10;60.90;;;;;;5100741;28;20049;-63
2021/11/25 00:22:14;;;;;;;30.83;17.30;;;10.10;61.90;;;;;;5100456;28;20035;-63
2021/11/25 00:24:40;;;;;;;31.33;17.50;;;10.00;64.20;;;;;;5100499;28;20028;-64
2021/11/25 00:27:06;;;;;;;33.03;17.55;;;10.00;61.40;;;;;;5100522;28;20032;-64
2021/11/25 00:29:32;;;;;;;31.90;16.88;;;10.00;61.50;;;;;;5100526;28;20016;-64
2021/11/25 00:31:58;;;;;;;38.40;19.35;;;10.00;62.00;;;;;;5101050;28;20085;-64
2021/11/25 00:34:24;;;;;;;33.00;18.92;;;10.00;61.10;;;;;;5100227;28;20080;-64
2021/11/25 00:36:50;;;;;;;33.78;18.48;;;10.00;61.70;;;;;;5100208;28;20426;-63
2021/11/25 00:39:15;;;;;;;34.50;19.38;;;9.90;61.80;;;;;;5100038;28;20024;-63
2021/11/25 00:41:43;;;;;;;36.13;18.85;;;9.90;61.40;;;;;;5100563;28;20028;-64
2021/11/25 00:44:08;;;;;;;35.13;18.42;;;9.90;62.00;;;;;;5100013;28;20027;-66
2021/11/25 00:46:34;;;;;;;36.90;19.20;;;10.00;62.10;;;;;;5100356;28;20028;-64
2021/11/25 00:49:00;;;;;;;34.90;18.92;;;10.00;61.80;;;;;;5099940;28;20095;-63
2021/11/25 00:51:26;;;;;;;33.45;18.58;;;10.00;61.70;;;;;;5100106;28;20488;-63
2021/11/25 00:53:51;;;;;;;34.45;17.40;;;10.00;61.30;;;;;;5099963;28;20061;-64
2021/11/25 00:56:17;;;;;;;31.65;17.08;;;10.00;62.30;;;;;;5100030;28;20036;-64
2021/11/25 00:58:43;;;;;;;33.92;17.88;;;10.00;62.00;;;;;;5099774;28;20024;-63
2021/11/25 01:01:09;;;;;;;33.05;17.17;;;10.00;63.40;;;;;;5099802;28;20500;-63
2021/11/25 01:03:34;;;;;;;30.83;17.45;;;10.00;62.20;;;;;;5099887;28;20028;-63
2021/11/25 01:06:01;;;;;;;31.63;17.80;;;10.00;62.90;;;;;;5100027;28;20024;-64
2021/11/25 01:08:27;;;;;;;31.98;18.13;;;10.00;61.40;;;;;;5099955;28;20558;-63
2021/11/25 01:10:53;;;;;;;35.13;18.52;;;10.00;61.70;;;;;;5099555;28;20024;-64
2021/11/25 01:13:20;;;;;;;32.60;17.83;;;9.90;61.60;;;;;;5099266;28;20027;-64
2021/11/25 01:15:46;;;;;;;33.60;17.88;;;9.90;61.60;;;;;;5099661;28;20016;-63
2021/11/25 01:18:14;;;;;;;29.73;16.23;;;9.90;61.60;;;;;;5099425;28;20028;-65
2021/11/25 01:20:43;;;;;;;37.28;20.40;;;9.90;62.50;;;;;;5099326;28;20051;-63
2021/11/25 01:23:13;;;;;;;68.57;32.90;;;9.90;61.90;;;;;;5099432;28;20020;-63
2021/11/25 01:25:39;;;;;;;43.83;22.10;;;9.90;63.20;;;;;;5099042;28;20040;-63
2021/11/25 01:28:12;;;;;;;35.85;19.80;;;9.80;64.50;;;;;;5099703;28;20020;-63
2021/11/25 01:30:39;;;;;;;39.83;20.92;;;9.90;62.90;;;;;;5099162;28;20035;-63
2021/11/25 01:33:04;;;;;;;38.85;20.55;;;9.90;62.90;;;;;;5099298;28;20130;-63
2021/11/25 01:35:30;;;;;;;42.13;20.67;;;9.90;63.20;;;;;;5098882;28;20491;-63
2021/11/25 01:37:56;;;;;;;39.08;21.73;;;9.90;62.80;;;;;;5098993;28;20028;-63
2021/11/25 01:40:22;;;;;;;40.67;21.08;;;9.90;62.70;;;;;;5098960;28;20081;-64
2021/11/25 01:42:48;;;;;;;39.40;21.20;;;9.90;62.90;;;;;;5099078;28;20076;-63
2021/11/25 01:45:14;;;;;;;34.15;19.35;;;9.90;62.30;;;;;;5099085;28;20035;-63
2021/11/25 01:47:45;;;;;;;38.88;20.20;;;9.90;62.60;;;;;;5098644;28;20032;-64
2021/11/25 01:50:17;;;;;;;40.28;19.40;;;9.90;62.80;;;;;;5098828;28;20026;-64
2021/11/25 01:52:44;;;;;;;34.70;18.25;;;9.90;63.50;;;;;;5099048;28;20021;-63
2021/11/25 01:55:10;;;;;;;40.03;19.17;;;9.90;63.20;;;;;;5098650;28;20024;-64
2021/11/25 01:57:36;;;;;;;37.95;19.10;;;9.90;63.00;;;;;;5098453;28;20024;-63
2021/11/25 02:00:18;;;;;;;31.85;16.70;;;9.90;62.50;;;;;;5098716;28;20077;-65
2021/11/25 02:02:44;;;;;;;36.22;19.13;;;9.90;62.10;;;;;;5098575;28;20094;-63
2021/11/25 02:05:10;;;;;;;36.28;18.95;;;9.90;63.20;;;;;;5098596;28;20031;-64
2021/11/25 02:07:36;;;;;;;33.55;17.92;;;9.80;63.50;;;;;;5098419;28;20535;-63
2021/11/25 02:10:06;;;;;;;32.13;17.90;;;9.80;62.90;;;;;;5098907;28;20059;-63
2021/11/25 02:12:31;;;;;;;33.47;18.27;;;9.80;63.30;;;;;;5098353;28;20028;-63
2021/11/25 02:14:58;;;;;;;31.70;17.65;;;9.80;62.80;;;;;;5098446;28;20027;-64
2021/11/25 02:17:24;;;;;;;32.65;17.83;;;9.90;63.10;;;;;;5098744;28;20051;-64
2021/11/25 02:19:50;;;;;;;33.22;17.73;;;9.80;63.10;;;;;;5098473;28;20084;-64
2021/11/25 02:22:18;;;;;;;30.35;16.15;;;9.90;62.80;;;;;;5098442;28;20028;-64
2021/11/25 02:24:44;;;;;;;30.45;15.52;;;9.90;62.90;;;;;;5097311;28;20505;-64
2021/11/25 02:27:10;;;;;;;32.67;17.73;;;9.80;62.10;;;;;;5098328;28;20020;-63
2021/11/25 02:29:35;;;;;;;30.20;16.60;;;9.80;62.80;;;;;;5098393;28;20035;-63
2021/11/25 02:32:01;;;;;;;33.03;18.15;;;9.80;63.90;;;;;;5098327;28;20107;-63
2021/11/25 02:34:27;;;;;;;35.03;17.95;;;9.80;63.60;;;;;;5098077;28;20028;-64
2021/11/25 02:36:53;;;;;;;36.65;18.70;;;9.70;63.00;;;;;;5098190;28;20536;-64
2021/11/25 02:39:20;;;;;;;33.33;17.92;;;9.80;63.30;;;;;;5098210;28;20038;-64
2021/11/25 02:41:46;;;;;;;33.35;18.30;;;9.80;64.10;;;;;;5098423;28;20027;-66
2021/11/25 02:44:12;;;;;;;29.55;17.35;;;9.80;62.70;;;;;;5097724;28;20039;-63
2021/11/25 02:46:38;;;;;;;33.88;18.00;;;9.80;63.20;;;;;;5097815;28;20020;-63
2021/11/25 02:49:04;;;;;;;33.25;18.73;;;9.70;63.20;;;;;;5098063;28;20051;-64
2021/11/25 02:51:35;;;;;;;32.60;17.30;;;9.70;63.20;;;;;;5098054;28;20012;-64
2021/11/25 02:54:01;;;;;;;34.83;18.08;;;9.70;64.80;;;;;;5097839;28;20031;-63
2021/11/25 02:56:29;;;;;;;33.55;17.00;;;9.70;63.10;;;;;;5097836;28;20103;-65
2021/11/25 02:58:56;;;;;;;37.30;18.02;;;9.70;63.60;;;;;;5098016;28;20580;-63
2021/11/25 03:01:36;;;;;;;31.88;15.90;;;9.70;63.80;;;;;;5098080;28;20024;-63
2021/11/25 03:04:04;;;;;;;28.48;15.75;;;9.70;63.50;;;;;;5097794;28;20032;-63
2021/11/25 03:06:31;;;;;;;32.05;17.13;;;9.70;63.30;;;;;;5097651;28;20118;-63
2021/11/25 03:08:57;;;;;;;31.95;16.90;;;9.70;62.50;;;;;;5097698;28;20074;-63
2021/11/25 03:11:25;;;;;;;30.25;16.58;;;9.70;63.10;;;;;;5097670;28;20036;-63
2021/11/25 03:13:57;;;;;;;31.48;17.02;;;9.70;62.70;;;;;;5097662;28;20024;-63
2021/11/25 03:16:24;;;;;;;30.13;14.95;;;9.60;62.60;;;;;;5098015;28;20027;-63
2021/11/25 03:18:51;;;;;;;27.20;15.05;;;9.50;64.00;;;;;;5097545;28;20032;-63
2021/11/25 03:21:18;;;;;;;31.98;17.00;;;9.40;64.80;;;;;;5097830;28;20046;-63
2021/11/25 03:23:46;;;;;;;30.00;16.40;;;9.40;63.50;;;;;;5097749;28;20047;-63
2021/11/25 03:26:14;;;;;;;37.55;18.67;;;9.30;64.40;;;;;;5097398;28;20040;-63
2021/11/25 03:28:44;;;;;;;34.90;16.90;;;9.40;62.80;;;;;;5097678;28;20475;-63
2021/11/25 03:31:19;;;;;;;30.00;15.68;;;9.30;63.30;;;;;;5097567;28;20024;-63
2021/11/25 03:33:45;;;;;;;28.55;15.75;;;9.30;63.40;;;;;;5097819;28;20024;-63
2021/11/25 03:36:11;;;;;;;31.70;16.77;;;9.30;62.90;;;;;;5099238;28;20016;-63
2021/11/25 03:38:37;;;;;;;31.83;16.23;;;9.20;62.70;;;;;;5101516;28;20028;-64
2021/11/25 03:41:05;;;;;;;30.55;16.17;;;9.10;62.80;;;;;;5101454;28;20042;-63
2021/11/25 03:43:30;;;;;;;36.40;17.88;;;9.10;63.30;;;;;;5101142;28;20103;-64
2021/11/25 03:45:57;;;;;;;26.70;15.52;;;9.00;63.10;;;;;;5101170;28;20043;-63
2021/11/25 03:48:28;;;;;;;30.20;16.08;;;8.90;64.00;;;;;;5101356;28;20044;-63
2021/11/25 03:50:55;;;;;;;28.13;16.00;;;8.90;63.90;;;;;;5101219;28;20445;-63
2021/11/25 03:53:21;;;;;;;32.78;16.10;;;8.80;64.50;;;;;;5101251;28;20093;-63
2021/11/25 03:55:46;;;;;;;31.52;16.38;;;8.80;63.80;;;;;;5101474;28;20020;-65
2021/11/25 03:58:12;;;;;;;57.00;21.85;;;8.70;63.80;;;;;;5100956;28;20032;-63
2021/11/25 04:00:38;;;;;;;48.92;19.45;;;8.70;64.10;;;;;;5099505;28;20021;-63
2021/11/25 04:03:04;;;;;;;53.20;22.15;;;8.60;64.90;;;;;;5101175;28;20030;-63
2021/11/25 04:05:31;;;;;;;47.97;19.17;;;8.60;65.20;;;;;;5100831;28;20027;-63
2021/11/25 04:07:57;;;;;;;36.50;15.80;;;8.60;64.40;;;;;;5100884;28;20024;-63
2021/11/25 04:10:23;;;;;;;28.80;14.65;;;8.60;64.30;;;;;;5100925;28;20059;-64
2021/11/25 04:12:49;;;;;;;28.75;14.18;;;8.50;64.60;;;;;;5100711;28;20024;-63
2021/11/25 04:15:16;;;;;;;28.98;13.52;;;8.50;64.80;;;;;;5100660;28;20023;-63
2021/11/25 04:17:42;;;;;;;26.95;14.07;;;8.50;64.60;;;;;;5100601;28;20035;-64
2021/11/25 04:20:10;;;;;;;26.83;13.55;;;8.40;64.00;;;;;;5100961;28;20016;-63
2021/11/25 04:22:36;;;;;;;29.17;14.45;;;8.30;64.60;;;;;;5100420;28;20028;-63
2021/11/25 04:25:03;;;;;;;27.65;13.68;;;8.30;64.80;;;;;;5100312;28;20047;-63
2021/11/25 04:27:29;;;;;;;24.77;12.48;;;8.20;63.70;;;;;;5100466;28;20028;-63
2021/11/25 04:35:35;;;;;;;25.02;12.73;;;8.10;64.50;;;;;;5100550;28;20477;-63
2021/11/25 04:38:02;;;;;;;25.83;12.40;;;8.00;64.10;;;;;;5100620;28;20059;-63
2021/11/25 04:40:54;;;;;;;24.38;11.90;;;8.00;64.30;;;;;;5100110;28;20085;-63
2021/11/25 04:43:21;;;;;;;29.55;12.63;;;7.90;63.70;;;;;;5090009;28;20051;-63
2021/11/25 04:45:48;;;;;;;25.92;12.07;;;7.80;63.60;;;;;;5100265;28;20081;-63
2021/11/25 04:48:16;;;;;;;21.23;11.32;;;7.80;64.50;;;;;;5099356;28;20024;-63
2021/11/25 04:50:42;;;;;;;22.15;11.48;;;7.70;64.20;;;;;;5100439;28;20489;-63
2021/11/25 04:53:10;;;;;;;22.23;11.18;;;7.60;64.10;;;;;;5099865;28;20032;-64
2021/11/25 04:55:36;;;;;;;24.80;12.10;;;7.60;64.10;;;;;;5099801;28;20021;-63
2021/11/25 04:58:03;;;;;;;26.52;13.13;;;7.50;64.40;;;;;;5100558;28;20471;-63
2021/11/25 05:00:29;;;;;;;24.63;11.55;;;7.50;63.80;;;;;;5099944;28;20047;-63
2021/11/25 05:02:54;;;;;;;24.52;12.20;;;7.50;64.40;;;;;;5099726;28;20032;-63
2021/11/25 05:05:20;;;;;;;22.88;11.45;;;7.50;63.70;;;;;;5099683;28;20030;-63
2021/11/25 05:07:46;;;;;;;24.63;10.80;;;7.50;64.40;;;;;;5099718;28;20029;-63
2021/11/25 05:10:12;;;;;;;23.33;10.15;;;7.50;64.60;;;;;;5099583;28;20564;-63
2021/11/25 05:12:38;;;;;;;23.90;12.60;;;7.50;65.20;;;;;;5099571;28;20032;-63
2021/11/25 05:15:09;;;;;;;27.35;12.27;;;7.60;64.00;;;;;;5099495;28;20020;-63
2021/11/25 05:17:35;;;;;;;23.33;11.38;;;7.50;64.80;;;;;;5099637;28;20475;-63
2021/11/25 05:20:04;;;;;;;32.08;11.55;;;7.60;65.00;;;;;;5099672;28;20035;-63
2021/11/25 05:22:29;;;;;;;21.55;11.27;;;7.60;64.30;;;;;;5099254;28;20024;-63
2021/11/25 05:24:55;;;;;;;25.30;11.88;;;7.70;65.10;;;;;;5099138;28;20048;-63
2021/11/25 05:27:21;;;;;;;25.38;12.00;;;7.70;64.30;;;;;;5099183;28;20093;-66
2021/11/25 05:29:47;;;;;;;24.25;13.05;;;7.80;64.90;;;;;;5099429;28;20035;-63
2021/11/25 05:32:15;;;;;;;25.77;12.93;;;7.90;64.60;;;;;;5099083;28;20020;-63
2021/11/25 05:34:42;;;;;;;27.13;13.93;;;7.90;64.50;;;;;;5099561;28;20455;-63
2021/11/25 05:37:08;;;;;;;24.13;13.27;;;8.00;64.60;;;;;;5098991;28;20024;-63
2021/11/25 05:39:33;;;;;;;25.15;12.98;;;8.10;64.50;;;;;;5098828;28;20111;-63
2021/11/25 05:41:59;;;;;;;27.48;12.88;;;8.10;64.70;;;;;;5098993;28;20027;-63
2021/11/25 05:44:25;;;;;;;23.05;11.95;;;8.20;66.30;;;;;;5098731;28;20118;-63
2021/11/25 05:46:51;;;;;;;26.52;13.10;;;8.20;66.20;;;;;;5099174;28;20099;-63
2021/11/25 05:49:17;;;;;;;24.20;12.98;;;8.40;66.40;;;;;;5098600;28;20020;-63
2021/11/25 05:51:43;;;;;;;24.70;11.68;;;8.40;64.90;;;;;;5098996;28;20514;-63
2021/11/25 05:54:09;;;;;;;26.30;12.52;;;8.40;66.90;;;;;;5098969;28;20028;-63
2021/11/25 05:56:34;;;;;;;25.95;12.77;;;8.40;65.00;;;;;;5098811;28;20032;-63
2021/11/25 05:59:00;;;;;;;25.85;12.55;;;8.40;65.70;;;;;;5098583;28;20490;-63
2021/11/25 06:01:26;;;;;;;24.27;11.90;;;8.30;65.20;;;;;;5098354;28;20024;-63
2021/11/25 06:03:53;;;;;;;21.48;12.32;;;8.30;66.30;;;;;;5098802;28;20069;-64
2021/11/25 06:06:20;;;;;;;26.00;13.35;;;8.20;65.90;;;;;;5098357;28;20031;-63
2021/11/25 06:08:46;;;;;;;21.25;11.75;;;8.30;66.00;;;;;;5098300;28;20032;-67
2021/11/25 06:11:12;;;;;;;24.27;12.57;;;8.30;66.50;;;;;;5098651;28;20020;-63
2021/11/25 06:13:38;;;;;;;24.15;12.48;;;8.40;65.70;;;;;;5098578;28;20024;-63
2021/11/25 06:16:04;;;;;;;21.67;11.35;;;8.40;65.40;;;;;;5098277;28;20036;-63
2021/11/25 06:18:30;;;;;;;25.55;12.23;;;8.50;65.20;;;;;;5098469;28;20058;-63
2021/11/25 06:20:56;;;;;;;23.50;11.32;;;8.50;64.90;;;;;;5098698;28;20020;-63
2021/11/25 06:23:22;;;;;;;28.10;12.52;;;8.60;65.20;;;;;;5098256;28;20050;-63
2021/11/25 06:25:48;;;;;;;26.77;14.23;;;8.60;65.00;;;;;;5098417;28;20056;-63
2021/11/25 06:28:14;;;;;;;25.08;12.25;;;8.70;65.10;;;;;;5098255;28;20024;-63
2021/11/25 06:30:41;;;;;;;25.52;13.07;;;8.70;65.20;;;;;;5098621;28;20079;-63
2021/11/25 06:33:07;;;;;;;28.17;13.55;;;8.70;65.40;;;;;;5098113;28;20427;-63
2021/11/25 06:35:33;;;;;;;25.75;12.88;;;8.70;65.20;;;;;;5098366;28;20016;-63
2021/11/25 06:37:59;;;;;;;23.92;12.68;;;8.70;64.80;;;;;;5098044;28;20391;-63
2021/11/25 06:40:30;;;;;;;25.15;12.63;;;8.60;65.80;;;;;;5098082;28;20115;-63
2021/11/25 06:42:58;;;;;;;25.30;12.52;;;8.70;64.80;;;;;;5097996;28;20107;-63
2021/11/25 06:45:25;;;;;;;28.77;12.93;;;8.60;65.30;;;;;;5098045;28;20043;-63
2021/11/25 06:47:51;;;;;;;21.70;11.60;;;8.60;64.50;;;;;;5097867;28;20491;-63
2021/11/25 06:50:18;;;;;;;24.25;11.48;;;8.50;65.30;;;;;;5097709;28;20209;-63
2021/11/25 06:52:45;;;;;;;22.38;11.10;;;8.50;65.20;;;;;;5098242;28;20041;-63
2021/11/25 06:55:11;;;;;;;24.95;10.98;;;8.50;65.00;;;;;;5098043;28;20475;-63
2021/11/25 06:57:38;;;;;;;24.90;11.60;;;8.40;64.80;;;;;;5097757;28;20028;-63
2021/11/25 07:00:07;;;;;;;20.33;11.30;;;8.30;64.40;;;;;;5097834;28;20020;-63
2021/11/25 07:02:33;;;;;;;25.83;14.07;;;8.20;64.50;;;;;;5098287;28;20089;-63
2021/11/25 07:04:59;;;;;;;22.20;12.25;;;8.10;64.40;;;;;;5097811;28;20032;-63
2021/11/25 07:07:25;;;;;;;25.20;13.02;;;7.90;65.70;;;;;;5097848;28;20112;-63
2021/11/25 07:09:51;;;;;;;23.92;11.65;;;7.80;65.10;;;;;;5097735;28;20391;-64
2021/11/25 07:12:17;;;;;;;23.13;11.40;;;7.70;65.30;;;;;;5101162;28;20099;-63
2021/11/25 07:14:43;;;;;;;25.90;12.93;;;7.60;65.10;;;;;;5101902;28;20048;-64
2021/11/25 07:17:08;;;;;;;25.58;11.55;;;7.50;64.80;;;;;;5101691;28;20024;-63
2021/11/25 07:19:34;;;;;;;25.05;11.77;;;7.50;65.40;;;;;;5101794;28;20142;-63
2021/11/25 07:22:00;;;;;;;23.55;11.07;;;7.40;64.60;;;;;;5101664;28;20028;-64
2021/11/25 07:24:26;;;;;;;23.25;10.82;;;7.40;65.10;;;;;;5101831;28;20107;-63
2021/11/25 07:26:52;;;;;;;24.00;10.60;;;7.20;65.20;;;;;;5101115;28;20048;-63
2021/11/25 07:29:18;;;;;;;22.05;11.27;;;7.20;65.10;;;;;;5101319;28;20032;-63
2021/11/25 07:31:46;;;;;;;18.88;9.68;;;7.10;65.60;;;;;;5101699;28;20077;-64
2021/11/25 07:34:12;;;;;;;23.30;10.57;;;7.10;65.20;;;;;;5101254;28;20031;-63
2021/11/25 07:36:38;;;;;;;22.30;9.18;;;7.00;65.20;;;;;;5101320;28;20036;-63
2021/11/25 07:39:04;;;;;;;18.38;9.57;;;7.00;64.60;;;;;;5100667;28;20119;-62
2021/11/25 07:41:31;;;;;;;21.88;10.10;;;6.90;65.30;;;;;;5100825;28;20107;-63
2021/11/25 07:43:57;;;;;;;18.45;9.38;;;6.90;65.30;;;;;;5100781;28;20042;-62
2021/11/25 07:46:23;;;;;;;18.75;9.82;;;6.90;64.50;;;;;;5100800;28;20024;-63
2021/11/25 07:48:49;;;;;;;19.95;10.07;;;6.90;65.00;;;;;;5100652;28;20126;-63
2021/11/25 07:51:16;;;;;;;19.48;10.10;;;6.90;65.30;;;;;;5100663;28;20023;-63
2021/11/25 07:53:42;;;;;;;21.35;9.95;;;7.00;65.10;;;;;;5100513;28;20023;-63
2021/11/25 07:56:08;;;;;;;22.58;10.10;;;7.10;65.80;;;;;;5100616;28;20507;-63
2021/11/25 07:58:34;;;;;;;21.75;10.23;;;7.10;65.00;;;;;;5100894;28;20020;-63
2021/11/25 08:01:00;;;;;;;26.50;11.13;;;7.20;65.10;;;;;;5100483;28;20082;-63
2021/11/25 08:03:26;;;;;;;22.27;10.90;;;7.40;64.90;;;;;;5100377;28;20534;-63
2021/11/25 08:05:55;;;;;;;23.33;11.00;;;7.40;65.40;;;;;;5100604;28;20024;-63
2021/11/25 08:08:21;;;;;;;19.27;9.93;;;7.50;65.50;;;;;;5100333;28;20115;-63
2021/11/25 08:10:47;;;;;;;22.48;10.63;;;7.60;65.70;;;;;;5100244;28;20043;-63
2021/11/25 08:13:13;;;;;;;22.92;11.23;;;7.60;66.20;;;;;;5100203;28;20095;-63
2021/11/25 08:15:38;;;;;;;22.23;11.52;;;7.70;65.60;;;;;;5100122;28;20020;-63
2021/11/25 08:18:04;;;;;;;20.83;10.90;;;7.70;67.40;;;;;;5100370;28;20028;-63
2021/11/25 08:20:31;;;;;;;24.38;11.27;;;7.80;65.50;;;;;;5100211;28;20043;-63
2021/11/25 08:22:58;;;;;;;29.30;12.23;;;7.80;66.00;;;;;;5099013;28;20020;-63
2021/11/25 08:25:25;;;;;;;22.20;10.05;;;7.70;65.10;;;;;;5099991;28;20048;-62
2021/11/25 08:27:55;;;;;;;23.80;11.57;;;7.70;65.50;;;;;;5099804;28;20477;-63
2021/11/25 08:30:22;;;;;;;22.88;10.82;;;7.70;65.30;;;;;;5099680;28;20097;-63
2021/11/25 08:32:48;;;;;;;23.80;12.43;;;7.60;65.70;;;;;;5100556;28;20492;-63
2021/11/25 08:35:14;;;;;;;22.60;11.80;;;7.60;65.10;;;;;;5100163;28;20024;-63
2021/11/25 08:37:41;;;;;;;24.27;11.52;;;7.60;65.70;;;;;;5099651;28;20498;-63
2021/11/25 08:40:10;;;;;;;28.75;12.90;;;7.60;65.60;;;;;;5099663;28;20047;-63
2021/11/25 08:42:36;;;;;;;38.13;16.92;;;7.60;66.90;;;;;;5099644;28;20023;-63
2021/11/25 08:45:02;;;;;;;41.97;16.83;;;7.70;66.10;;;;;;5099467;28;20024;-62
2021/11/25 08:47:28;;;;;;;28.83;13.55;;;7.80;66.30;;;;;;5099637;28;20028;-63
2021/11/25 08:49:54;;;;;;;26.35;12.88;;;7.90;66.00;;;;;;5099336;28;20028;-63
2021/11/25 08:52:20;;;;;;;25.48;12.68;;;8.00;66.00;;;;;;5099742;28;20031;-63
2021/11/25 08:54:45;;;;;;;30.27;14.40;;;8.00;66.70;;;;;;5099379;28;20028;-64
2021/11/25 08:57:11;;;;;;;22.88;11.68;;;8.10;67.10;;;;;;5099327;28;20024;-64
2021/11/25 08:59:37;;;;;;;24.98;12.40;;;8.20;66.80;;;;;;5099444;28;20694;-64
2021/11/25 09:02:04;;;;;;;24.13;11.70;;;8.20;66.30;;;;;;5098888;28;20042;-64
2021/11/25 09:04:30;;;;;;;23.73;11.68;;;8.40;66.00;;;;;;5099089;28;20080;-64
2021/11/25 09:06:56;;;;;;;25.52;12.45;;;8.50;66.30;;;;;;5099097;28;20016;-64
2021/11/25 09:09:22;;;;;;;24.05;11.07;;;8.60;66.60;;;;;;5098788;28;20024;-64
2021/11/25 09:11:48;;;;;;;24.95;12.38;;;8.80;66.20;;;;;;5099234;28;20046;-64
2021/11/25 09:14:14;;;;;;;24.05;10.52;;;9.00;66.80;;;;;;5099148;28;20441;-64
2021/11/25 09:16:41;;;;;;;23.42;10.52;;;9.20;65.40;;;;;;5099032;28;20024;-64
2021/11/25 09:19:07;;;;;;;23.80;10.38;;;9.40;65.20;;;;;;5099195;28;20103;-64
2021/11/25 09:21:33;;;;;;;20.00;10.13;;;9.40;65.20;;;;;;5098776;28;20429;-64
2021/11/25 09:24:01;;;;;;;20.45;10.40;;;9.40;65.80;;;;;;5098640;28;20066;-64
2021/11/25 09:26:28;;;;;;;21.55;10.38;;;9.40;65.80;;;;;;5098458;28;20145;-64
2021/11/25 09:28:57;;;;;;;18.05;10.32;;;9.40;65.40;;;;;;5098795;28;20049;-64
2021/11/25 09:31:28;;;;;;;20.73;9.82;;;9.40;65.10;;;;;;5098534;28;20028;-64
2021/11/25 09:33:55;;;;;;;22.90;10.65;;;9.30;65.50;;;;;;5098482;28;20091;-63
2021/11/25 09:36:21;;;;;;;20.52;10.38;;;9.30;65.60;;;;;;5098581;28;20455;-63
2021/11/25 09:38:48;;;;;;;22.33;10.25;;;9.30;65.60;;;;;;5098456;28;20507;-64
2021/11/25 09:41:14;;;;;;;22.88;9.70;;;9.30;65.60;;;;;;5098624;28;20118;-64
2021/11/25 09:43:41;;;;;;;19.80;9.88;;;9.30;65.40;;;;;;5098319;28;20032;-64
2021/11/25 09:46:09;;;;;;;18.40;9.20;;;9.30;66.40;;;;;;5098429;28;20020;-64
2021/11/25 09:48:35;;;;;;;19.67;9.25;;;9.30;66.10;;;;;;5098520;28;20063;-64
2021/11/25 09:51:01;;;;;;;18.75;9.10;;;9.40;65.90;;;;;;5098458;28;20048;-64
2021/11/25 09:53:28;;;;;;;16.85;8.70;;;9.50;65.50;;;;;;5098517;28;20024;-64
2021/11/25 09:55:56;;;;;;;21.80;8.55;;;9.50;66.00;;;;;;5098285;28;20016;-64
2021/11/25 09:58:25;;;;;;;20.80;8.38;;;9.60;65.80;;;;;;5097983;28;20399;-64
2021/11/25 10:00:56;;;;;;;19.25;8.13;;;9.70;66.00;;;;;;5097524;28;20091;-64
2021/11/25 10:03:21;;;;;;;17.73;8.25;;;9.90;65.60;;;;;;5098215;28;20028;-64
2021/11/25 10:05:50;;;;;;;15.77;8.23;;;10.10;65.60;;;;;;5097895;28;20031;-64
2021/11/25 10:08:31;;;;;;;15.85;7.60;;;10.30;65.30;;;;;;5098034;28;20036;-64
2021/11/25 10:11:04;;;;;;;19.77;7.65;;;10.40;65.30;;;;;;5097715;28;20020;-64
2021/11/25 10:13:37;;;;;;;17.58;7.70;;;10.50;65.10;;;;;;5098169;28;20028;-64
2021/11/25 10:16:06;;;;;;;16.20;7.25;;;10.60;65.30;;;;;;5098165;28;20196;-64
2021/11/25 10:18:35;;;;;;;13.02;6.78;;;10.70;65.30;;;;;;5098530;28;20115;-64
2021/11/25 10:21:08;;;;;;;14.95;6.93;;;10.80;65.20;;;;;;5098400;28;20353;-64
2021/11/25 10:23:35;;;;;;;13.35;6.40;;;10.90;65.10;;;;;;5097369;28;20059;-63
2021/11/25 10:26:02;;;;;;;9.77;5.15;;;11.40;65.10;;;;;;5097709;28;20131;-64
2021/11/25 10:28:51;;;;;;;11.93;5.18;;;11.90;64.50;;;;;;5097876;28;20101;-63
2021/11/25 10:31:28;;;;;;;12.48;5.28;;;12.70;64.70;;;;;;5097710;28;20016;-62
2021/11/25 10:34:29;;;;;;;9.40;4.70;;;14.00;64.10;;;;;;5097535;28;20027;-63
2021/11/25 10:37:03;;;;;;;11.98;4.35;;;14.80;61.60;;;;;;5097557;28;20032;-64
2021/11/25 10:42:28;;;;;;;8.93;3.95;;;14.70;60.10;;;;;;5097638;28;20038;-64
2021/11/25 10:44:55;;;;;;;10.43;4.47;;;14.30;60.20;;;;;;5097343;28;20081;-65
2021/11/25 10:47:23;;;;;;;8.68;4.35;;;14.00;60.90;;;;;;5097222;28;20059;-64
2021/11/25 10:49:59;;;;;;;9.88;4.40;;;13.70;60.80;;;;;;5097254;28;20076;-64
2021/11/25 10:52:44;;;;;;;11.73;5.22;;;13.30;61.10;;;;;;5097746;28;20103;-64
2021/11/25 10:55:16;;;;;;;10.88;4.78;;;13.00;61.40;;;;;;5097231;28;20024;-64
2021/11/25 10:57:41;;;;;;;11.40;5.40;;;12.70;61.80;;;;;;5098375;28;20066;-65
2021/11/25 11:00:24;;;;;;;10.57;5.25;;;12.40;62.20;;;;;;5097916;28;20036;-64
2021/11/25 11:03:05;;;;;;;11.10;5.28;;;12.10;62.50;;;;;;5098158;28;20031;-64
2021/11/25 11:05:44;;;;;;;13.57;5.22;;;11.90;62.60;;;;;;5097951;28;20479;-64
2021/11/25 11:08:10;;;;;;;14.48;5.10;;;11.80;63.10;;;;;;5097704;28;20097;-65
2021/11/25 11:10:37;;;;;;;12.13;5.78;;;11.70;63.50;;;;;;5097987;28;20020;-66
2021/11/25 11:20:47;;;;;;;11.63;5.13;;;12.50;63.10;;;;;;5098058;28;20073;-64
2021/11/25 11:23:14;;;;;;;12.75;5.38;;;12.60;62.80;;;;;;5097784;28;20052;-65
2021/11/25 11:25:42;;;;;;;14.65;5.82;;;12.50;62.80;;;;;;5097856;28;20051;-65
2021/11/25 11:28:09;;;;;;;17.98;5.72;;;12.40;62.70;;;;;;5097632;28;20054;-64
2021/11/25 11:30:35;;;;;;;9.93;5.00;;;12.20;63.00;;;;;;5097620;28;20479;-64
2021/11/25 11:33:05;;;;;;;12.93;5.28;;;12.10;62.90;;;;;;5097419;28;20114;-64
2021/11/25 11:35:31;;;;;;;11.15;4.80;;;11.90;63.20;;;;;;5097721;28;20020;-64
2021/11/25 11:38:03;;;;;;;11.90;4.55;;;11.80;63.60;;;;;;5097476;28;20022;-64
2021/11/25 11:40:33;;;;;;;10.23;4.60;;;11.70;63.60;;;;;;5097459;28;20498;-65
2021/11/25 11:43:01;;;;;;;12.10;4.47;;;11.60;63.70;;;;;;5098019;28;20506;-65
2021/11/25 11:45:29;;;;;;;13.32;4.97;;;11.50;63.80;;;;;;5097736;28;20479;-65
2021/11/25 11:47:58;;;;;;;11.35;4.28;;;11.40;64.10;;;;;;5097305;28;20060;-64
2021/11/25 11:50:48;;;;;;;12.57;4.72;;;11.30;64.30;;;;;;5097597;28;20352;-65
2021/11/25 11:53:17;;;;;;;11.52;4.57;;;11.30;64.20;;;;;;5097306;28;20020;-65
2021/11/25 11:55:59;;;;;;;9.50;4.10;;;11.20;64.30;;;;;;5097605;28;20035;-65
2021/11/25 11:58:33;;;;;;;14.23;3.95;;;11.10;64.20;;;;;;5100607;28;20031;-65
2021/11/25 12:01:04;;;;;;;11.20;3.92;;;11.10;64.00;;;;;;5100984;28;20483;-65
2021/11/25 12:03:36;;;;;;;11.80;3.60;;;11.00;63.90;;;;;;5100451;28;20024;-65
2021/11/25 12:06:03;;;;;;;12.60;3.72;;;11.00;64.40;;;;;;5100620;28;20048;-65
2021/11/25 12:08:31;;;;;;;11.85;3.10;;;11.00;64.00;;;;;;5100574;28;20111;-65
2021/11/25 12:10:57;;;;;;;17.20;6.55;;;11.50;64.90;;;;;;5101072;28;20138;-65
2021/11/25 12:13:25;;;;;;;12.02;3.80;;;12.50;63.10;;;;;;5101075;28;20062;-65
2021/11/25 12:16:11;;;;;;;13.05;4.05;;;13.10;62.50;;;;;;5101316;28;20016;-65
2021/11/25 12:18:37;;;;;;;8.80;3.70;;;13.40;61.20;;;;;;5099535;28;20032;-65
2021/11/25 12:21:03;;;;;;;14.65;3.05;;;13.70;61.70;;;;;;5100385;28;20017;-65
2021/11/25 12:23:35;;;;;;;13.07;4.70;;;14.00;60.10;;;;;;5100042;28;20020;-64
2021/11/25 12:26:01;;;;;;;12.70;2.42;;;13.90;58.20;;;;;;5099894;28;20170;-64
2021/11/25 12:28:29;;;;;;;10.80;2.85;;;13.70;59.70;;;;;;5099992;28;20035;-64
2021/11/25 12:31:39;;;;;;;12.80;2.97;;;13.60;59.90;;;;;;5100006;28;20024;-64
2021/11/25 12:33:48;;;;;;;12.73;2.78;;;13.40;60.20;;;;;;5094815;28;20036;-65
2021/11/25 12:36:34;;;;;;;10.35;2.95;;;13.20;60.50;;;;;;5100088;28;20030;-64
2021/11/25 12:39:02;;;;;;;12.90;6.15;;;13.00;60.50;;;;;;5099738;28;20024;-64
2021/11/25 12:41:28;;;;;;;13.20;2.90;;;12.80;60.00;;;;;;5099907;28;20030;-65
2021/11/25 12:43:56;;;;;;;12.10;2.58;;;12.60;59.60;;;;;;5099782;28;20020;-64
2021/11/25 12:46:22;;;;;;;11.25;2.67;;;12.40;59.10;;;;;;5099437;28;20024;-64
2021/11/25 12:48:50;;;;;;;8.82;2.70;;;12.20;59.40;;;;;;5099861;28;20081;-64
2021/11/25 12:51:22;;;;;;;7.93;2.25;;;12.20;60.20;;;;;;5099781;28;20539;-64
2021/11/25 12:54:00;;;;;;;11.27;2.40;;;12.10;60.10;;;;;;5099796;28;20483;-64